Time;durP1;ratioP1;P1;durP2;ratioP2;P2;SDS_P1;SDS_P2;PMS_P1;PMS_P2;Temp;Humidity;BMP_temperature;BMP_pressure;BME280_temperature;BME280_humidity;BME280_pressure;Samples;Min_cycle;Max_cycle;Signal;HPM_P1;HPM_P2
2022/01/17 00:01:19;;;;;;;30.75;11.05;;;;;;;;;;5041485;28;20076;-68
2022/01/17 00:03:48;;;;;;;28.77;10.73;;;;;;;;;;5043291;28;20050;-68
2022/01/17 00:06:18;;;;;;;25.45;10.73;;;;;;;;;;5050001;28;20514;-68
2022/01/17 00:08:48;;;;;;;29.13;11.63;;;;;;;;;;5058784;28;20071;-68
2022/01/17 00:11:18;;;;;;;27.42;9.75;;;;;;;;;;5060055;28;20053;-68
2022/01/17 00:13:46;;;;;;;30.75;11.70;;;;;;;;;;5054902;28;20148;-68
2022/01/17 00:16:20;;;;;;;30.02;11.65;;;;;;;;;;5038125;28;20075;-68
2022/01/17 00:19:18;;;;;;;28.33;10.73;;;;;;;;;;5056991;28;20472;-68
2022/01/17 00:21:48;;;;;;;25.88;10.45;;;;;;;;;;5046833;28;20073;-67
2022/01/17 00:24:18;;;;;;;24.92;10.50;;;;;;;;;;5040398;28;20515;-67
2022/01/17 00:26:47;;;;;;;30.33;10.77;;;;;;;;;;5057768;28;20077;-68
2022/01/17 00:29:17;;;;;;;27.63;11.15;;;;;;;;;;5062514;28;20139;-68
2022/01/17 00:31:45;;;;;;;26.95;10.35;;;;;;;;;;5055884;28;20048;-68
2022/01/17 00:34:13;;;;;;;27.55;10.55;;;;;;;;;;5038800;28;20048;-68
2022/01/17 00:36:42;;;;;;;29.20;11.13;;;;;;;;;;5063262;28;20068;-67
2022/01/17 00:39:11;;;;;;;26.42;11.23;;;;;;;;;;5054065;28;20084;-68
2022/01/17 00:41:40;;;;;;;30.88;11.27;;;;;;;;;;5048017;28;20470;-67
2022/01/17 00:44:08;;;;;;;30.35;12.27;;;;;;;;;;5038603;28;20532;-67
2022/01/17 00:46:37;;;;;;;29.88;11.77;;;;;;;;;;5049829;28;21471;-68
2022/01/17 00:49:05;;;;;;;23.98;10.23;;;;;;;;;;5055535;28;20750;-68
2022/01/17 00:51:34;;;;;;;31.58;10.77;;;;;;;;;;5042341;28;20357;-67
2022/01/17 00:54:02;;;;;;;28.42;11.98;;;;;;;;;;5060345;28;20084;-68
2022/01/17 00:56:34;;;;;;;30.45;11.35;;;;;;;;;;5029432;28;20378;-67
2022/01/17 00:59:03;;;;;;;29.92;11.20;;;;;;;;;;5038960;28;20140;-68
2022/01/17 01:01:31;;;;;;;27.90;10.55;;;;;;;;;;5047626;28;20076;-68
2022/01/17 01:04:00;;;;;;;22.98;10.25;;;;;;;;;;5049488;28;20049;-67
2022/01/17 01:06:30;;;;;;;25.25;11.18;;;;;;;;;;5052073;28;20048;-67
2022/01/17 01:08:58;;;;;;;27.98;11.15;;;;;;;;;;5057843;28;20147;-68
2022/01/17 01:11:26;;;;;;;31.05;11.90;;;;;;;;;;5053945;28;20135;-67
2022/01/17 01:13:56;;;;;;;31.27;11.85;;;;;;;;;;5051904;28;20132;-67
2022/01/17 01:16:32;;;;;;;27.67;11.93;;;;;;;;;;5046746;28;20147;-68
2022/01/17 01:19:19;;;;;;;25.83;11.38;;;;;;;;;;5056795;28;20048;-67
2022/01/17 01:30:12;;;;;;;22.02;10.05;;;;;;;;;;5065061;28;20675;-68
2022/01/17 01:32:45;;;;;;;24.20;10.25;;;;;;;;;;5044654;28;20050;-68
2022/01/17 01:35:17;;;;;;;25.98;10.00;;;;;;;;;;5034430;28;20073;-68
2022/01/17 01:37:47;;;;;;;24.02;9.73;;;;;;;;;;5047048;28;20124;-67
2022/01/17 01:40:17;;;;;;;20.52;8.60;;;;;;;;;;5069288;28;20067;-67
2022/01/17 01:42:46;;;;;;;21.15;9.65;;;;;;;;;;5056333;28;20171;-67
2022/01/17 01:45:15;;;;;;;24.30;9.32;;;;;;;;;;5055006;28;20134;-67
2022/01/17 01:47:44;;;;;;;22.27;9.43;;;;;;;;;;5049970;28;20095;-67
2022/01/17 01:50:28;;;;;;;21.62;7.27;;;;;;;;;;1152449;28;10021882;-68
2022/01/17 01:52:56;;;;;;;18.77;9.10;;;;;;;;;;4694878;28;10001437;-67
2022/01/17 01:55:24;;;;;;;20.15;8.57;;;;;;;;;;5040133;28;20077;-67
2022/01/17 01:57:53;;;;;;;15.60;7.95;;;;;;;;;;5050728;28;20128;-67
2022/01/17 02:00:22;;;;;;;21.80;7.32;;;;;;;;;;5043037;28;20496;-67
2022/01/17 02:02:51;;;;;;;18.67;7.85;;;;;;;;;;5041387;28;20100;-68
2022/01/17 02:05:19;;;;;;;19.42;7.20;;;;;;;;;;5048520;28;20131;-68
2022/01/17 02:07:48;;;;;;;18.05;7.53;;;;;;;;;;5056352;28;20127;-68
2022/01/17 02:10:16;;;;;;;17.52;7.15;;;;;;;;;;5056040;28;20060;-66
2022/01/17 02:12:45;;;;;;;18.05;7.50;;;;;;;;;;5037019;28;20081;-67
2022/01/17 02:15:14;;;;;;;17.05;7.22;;;;;;;;;;5045234;28;20483;-67
2022/01/17 02:17:46;;;;;;;15.80;6.28;;;;;;;;;;5030218;28;20049;-67
2022/01/17 02:20:17;;;;;;;21.13;7.68;;;;;;;;;;5046530;28;20045;-67
2022/01/17 02:22:45;;;;;;;16.55;6.25;;;;;;;;;;5039376;28;20084;-67
2022/01/17 02:25:14;;;;;;;16.48;6.05;;;;;;;;;;5051293;28;20063;-67
2022/01/17 02:27:42;;;;;;;17.13;7.03;;;;;;;;;;5049361;28;20052;-67
2022/01/17 02:30:12;;;;;;;18.20;7.20;;;;;;;;;;5050582;28;20137;-67
2022/01/17 02:32:41;;;;;;;14.05;6.53;;;;;;;;;;5041118;28;20045;-67
2022/01/17 02:35:13;;;;;;;11.57;5.78;;;;;;;;;;5053277;28;20139;-67
2022/01/17 02:37:42;;;;;;;17.75;7.05;;;;;;;;;;5043064;28;20135;-67
2022/01/17 02:40:12;;;;;;;11.52;5.68;;;;;;;;;;5043391;28;20055;-67
2022/01/17 02:42:40;;;;;;;12.15;5.20;;;;;;;;;;5035832;28;20046;-67
2022/01/17 02:45:19;;;;;;;8.60;4.95;;;;;;;;;;5026511;28;20046;-67
2022/01/17 02:47:48;;;;;;;13.10;5.93;;;;;;;;;;5039117;28;20049;-67
2022/01/17 02:50:16;;;;;;;18.35;6.60;;;;;;;;;;5056078;28;20051;-67
2022/01/17 02:52:46;;;;;;;10.82;5.03;;;;;;;;;;5053942;28;20045;-67
2022/01/17 02:55:14;;;;;;;12.50;5.45;;;;;;;;;;5052900;28;20049;-67
2022/01/17 02:57:42;;;;;;;11.45;5.60;;;;;;;;;;5045551;28;20645;-67
2022/01/17 03:00:11;;;;;;;9.48;4.57;;;;;;;;;;5052584;28;20212;-67
2022/01/17 03:02:41;;;;;;;13.80;5.22;;;;;;;;;;5046796;28;20556;-67
2022/01/17 03:05:10;;;;;;;14.00;4.70;;;;;;;;;;5043244;28;20088;-67
2022/01/17 03:07:38;;;;;;;11.18;4.65;;;;;;;;;;5056530;28;20045;-67
2022/01/17 03:10:16;;;;;;;11.00;4.40;;;;;;;;;;5056142;28;20040;-67
2022/01/17 03:12:44;;;;;;;12.43;5.07;;;;;;;;;;5040359;28;20499;-67
2022/01/17 03:15:13;;;;;;;11.13;4.82;;;;;;;;;;5043198;28;20539;-67
2022/01/17 03:17:42;;;;;;;10.45;4.53;;;;;;;;;;5028254;28;20125;-67
2022/01/17 03:20:10;;;;;;;10.93;5.05;;;;;;;;;;5030750;28;20114;-67
2022/01/17 03:22:39;;;;;;;9.68;4.57;;;;;;;;;;5048830;28;20120;-67
2022/01/17 03:25:09;;;;;;;12.52;4.65;;;;;;;;;;5044941;28;20074;-67
2022/01/17 03:27:38;;;;;;;12.48;5.13;;;;;;;;;;5047742;28;20127;-66
2022/01/17 03:30:07;;;;;;;10.70;5.22;;;;;;;;;;5048795;28;20131;-67
2022/01/17 03:32:35;;;;;;;9.10;4.53;;;;;;;;;;5048427;28;20198;-67
2022/01/17 03:35:04;;;;;;;9.30;4.60;;;;;;;;;;5053507;28;20052;-67
2022/01/17 03:37:32;;;;;;;11.20;5.10;;;;;;;;;;5045215;28;20126;-67
2022/01/17 03:40:01;;;;;;;13.00;4.93;;;;;;;;;;5053678;28;20063;-67
2022/01/17 03:42:30;;;;;;;12.73;5.13;;;;;;;;;;5048238;28;20049;-67
2022/01/17 03:45:00;;;;;;;11.15;4.72;;;;;;;;;;5032675;28;20102;-67
2022/01/17 03:47:29;;;;;;;11.50;5.45;;;;;;;;;;5036943;28;20133;-67
2022/01/17 03:49:57;;;;;;;11.50;4.70;;;;;;;;;;5038997;28;20052;-67
2022/01/17 03:52:25;;;;;;;11.48;4.30;;;;;;;;;;5043817;28;20048;-67
2022/01/17 03:54:54;;;;;;;10.35;4.57;;;;;;;;;;5044440;28;20139;-67
2022/01/17 03:57:23;;;;;;;9.55;4.22;;;;;;;;;;5053509;28;20147;-67
2022/01/17 03:59:53;;;;;;;11.48;4.93;;;;;;;;;;5052051;28;20094;-67
2022/01/17 04:02:21;;;;;;;12.45;5.38;;;;;;;;;;5045570;28;20144;-67
2022/01/17 04:04:51;;;;;;;12.60;5.38;;;;;;;;;;5040502;28;20052;-67
2022/01/17 04:07:19;;;;;;;11.65;4.10;;;;;;;;;;5043511;28;20164;-67
2022/01/17 04:09:47;;;;;;;12.45;5.55;;;;;;;;;;5047694;28;20057;-67
2022/01/17 04:12:16;;;;;;;9.30;4.70;;;;;;;;;;5031558;28;20051;-67
2022/01/17 04:14:45;;;;;;;7.93;4.80;;;;;;;;;;5065767;28;20060;-67
2022/01/17 04:17:14;;;;;;;13.45;4.88;;;;;;;;;;5034716;28;20052;-67
2022/01/17 04:19:46;;;;;;;10.05;4.75;;;;;;;;;;5046658;28;20556;-67
2022/01/17 04:22:15;;;;;;;15.07;5.55;;;;;;;;;;5043898;28;20309;-67
2022/01/17 04:24:44;;;;;;;11.93;5.35;;;;;;;;;;5048621;28;20099;-67
2022/01/17 04:27:12;;;;;;;11.43;5.30;;;;;;;;;;5055702;28;20044;-67
2022/01/17 04:29:41;;;;;;;11.60;5.32;;;;;;;;;;5047912;28;20325;-67
2022/01/17 04:32:09;;;;;;;14.75;6.07;;;;;;;;;;5048705;28;20136;-67
2022/01/17 04:34:38;;;;;;;12.45;5.22;;;;;;;;;;5050065;28;20131;-67
2022/01/17 04:37:08;;;;;;;11.55;5.35;;;;;;;;;;5051448;28;20454;-67
2022/01/17 04:39:36;;;;;;;12.57;5.32;;;;;;;;;;5043720;28;20140;-67
2022/01/17 04:42:11;;;;;;;12.93;5.13;;;;;;;;;;5048977;28;20076;-67
2022/01/17 04:47:26;;;;;;;12.65;5.47;;;;;;;;;;5044726;28;20019;-67
2022/01/17 04:49:55;;;;;;;14.25;5.80;;;;;;;;;;5045678;28;20163;-67
2022/01/17 04:52:24;;;;;;;13.63;5.07;;;;;;;;;;5044408;28;20075;-67
2022/01/17 04:54:54;;;;;;;13.45;4.68;;;;;;;;;;5049869;28;20041;-67
2022/01/17 04:57:22;;;;;;;10.75;5.25;;;;;;;;;;5056173;28;20057;-67
2022/01/17 04:59:55;;;;;;;12.80;4.78;;;;;;;;;;5047922;28;20045;-67
2022/01/17 05:02:23;;;;;;;9.15;4.32;;;;;;;;;;5037366;28;20104;-67
2022/01/17 05:04:53;;;;;;;10.68;5.13;;;;;;;;;;5039859;28;20124;-67
2022/01/17 05:07:22;;;;;;;13.20;4.97;;;;;;;;;;5030203;28;20581;-67
2022/01/17 05:09:51;;;;;;;14.80;5.95;;;;;;;;;;5059938;28;20140;-67
2022/01/17 05:12:19;;;;;;;10.50;4.82;;;;;;;;;;5047951;28;20136;-67
2022/01/17 05:14:50;;;;;;;15.60;5.07;;;;;;;;;;5045113;28;20044;-67
2022/01/17 05:17:37;;;;;;;9.20;4.00;;;;;;;;;;5042588;28;20040;-67
2022/01/17 05:20:07;;;;;;;7.13;4.13;;;;;;;;;;5056902;28;20469;-67
2022/01/17 05:22:37;;;;;;;11.02;4.78;;;;;;;;;;5047555;28;20544;-67
2022/01/17 05:25:07;;;;;;;11.25;4.80;;;;;;;;;;5054092;28;20109;-68
2022/01/17 05:27:36;;;;;;;14.65;5.13;;;;;;;;;;5050150;28;20143;-68
2022/01/17 05:30:06;;;;;;;9.82;4.47;;;;;;;;;;5035158;28;20223;-68
2022/01/17 05:32:34;;;;;;;9.27;4.60;;;;;;;;;;5044728;28;20081;-68
2022/01/17 05:35:03;;;;;;;10.20;4.75;;;;;;;;;;5060947;28;20098;-68
2022/01/17 05:37:31;;;;;;;10.45;4.65;;;;;;;;;;5040181;28;20459;-68
2022/01/17 05:40:01;;;;;;;10.27;4.97;;;;;;;;;;5037210;28;20565;-68
2022/01/17 05:42:30;;;;;;;9.40;4.45;;;;;;;;;;5046713;28;20576;-68
2022/01/17 05:44:58;;;;;;;9.82;4.82;;;;;;;;;;5044691;28;20137;-68
2022/01/17 05:47:27;;;;;;;9.63;4.40;;;;;;;;;;5047311;28;20052;-68
2022/01/17 05:49:55;;;;;;;13.13;4.50;;;;;;;;;;5041309;28;20488;-68
2022/01/17 05:52:23;;;;;;;10.00;4.10;;;;;;;;;;5032598;28;20145;-68
2022/01/17 05:54:52;;;;;;;11.73;4.40;;;;;;;;;;5043791;28;20128;-68
2022/01/17 05:57:22;;;;;;;11.60;5.15;;;;;;;;;;5046511;28;20447;-68
2022/01/17 05:59:51;;;;;;;9.05;4.35;;;;;;;;;;5044081;28;20816;-68
2022/01/17 06:02:32;;;;;;;7.05;2.92;;;;;;;;;;2786775;28;10002340;-68
2022/01/17 06:05:01;;;;;;;8.43;4.15;;;;;;;;;;3308887;28;10001528;-68
2022/01/17 06:07:38;;;;;;;7.42;3.80;;;;;;;;;;1617865;28;10022778;-68
2022/01/17 06:10:07;;;;;;;11.93;4.78;;;;;;;;;;3970528;28;10001132;-68
2022/01/17 06:12:38;;;;;;;14.77;4.60;;;;;;;;;;5037822;28;20095;-68
2022/01/17 06:15:07;;;;;;;11.75;5.18;;;;;;;;;;5049533;28;20135;-68
2022/01/17 06:17:36;;;;;;;11.60;4.72;;;;;;;;;;5046158;28;20047;-68
2022/01/17 06:20:04;;;;;;;10.88;4.28;;;;;;;;;;5039581;28;20146;-68
2022/01/17 06:22:33;;;;;;;11.25;4.60;;;;;;;;;;5045810;28;20048;-68
2022/01/17 06:25:01;;;;;;;11.23;4.15;;;;;;;;;;5050331;28;20048;-68
2022/01/17 06:27:30;;;;;;;12.73;4.97;;;;;;;;;;5064452;28;20041;-68
2022/01/17 06:30:00;;;;;;;12.52;5.07;;;;;;;;;;5053543;28;20083;-68
2022/01/17 06:32:30;;;;;;;12.10;4.38;;;;;;;;;;5047871;28;20559;-68
2022/01/17 06:34:59;;;;;;;10.90;5.05;;;;;;;;;;5044144;28;20135;-68
2022/01/17 06:37:27;;;;;;;12.02;4.53;;;;;;;;;;5046451;28;20564;-68
2022/01/17 06:39:55;;;;;;;7.15;4.20;;;;;;;;;;5039986;28;20059;-68
2022/01/17 06:42:24;;;;;;;10.98;4.10;;;;;;;;;;5044890;28;20085;-68
2022/01/17 06:44:53;;;;;;;10.38;4.15;;;;;;;;;;5058097;28;20148;-68
2022/01/17 06:47:23;;;;;;;11.55;4.78;;;;;;;;;;5057724;28;20080;-68
2022/01/17 06:49:51;;;;;;;11.52;4.55;;;;;;;;;;5051933;28;20151;-68
2022/01/17 06:52:19;;;;;;;12.73;4.85;;;;;;;;;;5048712;28;20092;-68
2022/01/17 06:54:48;;;;;;;10.75;4.13;;;;;;;;;;5033290;28;20053;-68
2022/01/17 06:57:17;;;;;;;10.48;4.57;;;;;;;;;;5064783;28;20215;-68
2022/01/17 06:59:45;;;;;;;7.15;4.30;;;;;;;;;;5061172;28;20056;-68
2022/01/17 07:02:13;;;;;;;10.40;5.18;;;;;;;;;;5066346;28;20079;-68
2022/01/17 07:04:48;;;;;;;11.43;4.85;;;;;;;;;;5051964;28;20045;-68
2022/01/17 07:07:17;;;;;;;13.52;4.22;;;;;;;;;;5049024;28;20064;-68
2022/01/17 07:09:46;;;;;;;10.75;4.53;;;;;;;;;;5064464;28;20052;-68
2022/01/17 07:12:35;;;;;;;10.81;4.21;;;;;;;;;;3003270;28;10004164;-68
2022/01/17 07:15:03;;;;;;;9.27;3.78;;;;;;;;;;3296155;28;10001494;-68
2022/01/17 07:17:32;;;;;;;12.00;4.55;;;;;;;;;;5029667;28;20069;-68
2022/01/17 07:20:01;;;;;;;9.18;4.05;;;;;;;;;;5052141;28;20071;-68
2022/01/17 07:22:32;;;;;;;8.25;4.15;;;;;;;;;;5043906;28;20476;-68
2022/01/17 07:25:01;;;;;;;12.32;4.50;;;;;;;;;;5056531;28;20107;-68
2022/01/17 07:27:34;;;;;;;9.57;4.30;;;;;;;;;;5055660;28;20107;-68
2022/01/17 07:30:05;;;;;;;10.50;4.63;;;;;;;;;;5027248;28;21005;-68
2022/01/17 07:32:33;;;;;;;8.50;4.25;;;;;;;;;;5044447;28;20080;-68
2022/01/17 07:35:03;;;;;;;9.95;4.75;;;;;;;;;;5044912;28;20056;-68
2022/01/17 07:37:31;;;;;;;9.93;4.53;;;;;;;;;;5047286;28;20140;-68
2022/01/17 07:40:00;;;;;;;9.82;3.85;;;;;;;;;;5040893;28;20049;-68
2022/01/17 07:42:29;;;;;;;9.18;4.22;;;;;;;;;;5043558;28;20563;-68
2022/01/17 07:44:59;;;;;;;9.75;3.80;;;;;;;;;;5039526;28;20095;-68
2022/01/17 07:47:40;;;;;;;10.50;3.85;;;;;;;;;;5042319;28;20112;-68
2022/01/17 07:50:13;;;;;;;10.43;4.13;;;;;;;;;;5045069;28;20052;-68
2022/01/17 07:52:41;;;;;;;8.43;3.55;;;;;;;;;;5045511;28;20060;-68
2022/01/17 07:55:10;;;;;;;10.23;3.67;;;;;;;;;;5036618;28;20572;-68
2022/01/17 07:57:39;;;;;;;11.75;4.80;;;;;;;;;;5039163;28;20151;-68
2022/01/17 08:00:08;;;;;;;13.77;4.60;;;;;;;;;;5038000;28;20123;-68
2022/01/17 08:02:37;;;;;;;8.10;3.63;;;;;;;;;;5040537;28;20108;-68
2022/01/17 08:05:07;;;;;;;10.45;4.80;;;;;;;;;;5044731;28;20479;-68
2022/01/17 08:07:38;;;;;;;9.05;4.32;;;;;;;;;;5034861;28;20081;-68
2022/01/17 08:10:12;;;;;;;7.35;3.78;;;;;;;;;;5038083;28;20458;-68
2022/01/17 08:12:41;;;;;;;10.23;4.45;;;;;;;;;;5026511;28;20045;-68
2022/01/17 08:15:10;;;;;;;9.98;3.58;;;;;;;;;;5032094;28;20049;-68
2022/01/17 08:17:39;;;;;;;14.90;4.57;;;;;;;;;;5045357;28;20497;-68
2022/01/17 08:20:08;;;;;;;8.25;4.15;;;;;;;;;;5041049;28;20057;-68
2022/01/17 08:22:38;;;;;;;6.93;3.63;;;;;;;;;;5035885;28;20148;-68
2022/01/17 08:25:07;;;;;;;8.90;4.45;;;;;;;;;;5034706;28;20420;-68
2022/01/17 08:27:36;;;;;;;9.13;4.43;;;;;;;;;;5037240;28;20520;-68
2022/01/17 08:30:05;;;;;;;9.55;3.85;;;;;;;;;;5034723;28;20041;-68
2022/01/17 08:32:55;;;;;;;7.38;3.70;;;;;;;;;;5026232;28;20073;-68
2022/01/17 08:35:24;;;;;;;7.13;4.13;;;;;;;;;;5029518;28;20475;-68
2022/01/17 08:37:54;;;;;;;10.40;4.60;;;;;;;;;;5043814;28;20439;-68
2022/01/17 08:40:38;;;;;;;6.85;4.15;;;;;;;;;;2130566;28;10023529;-68
2022/01/17 08:43:07;;;;;;;10.20;3.95;;;;;;;;;;3642961;28;10001128;-68
2022/01/17 08:45:36;;;;;;;12.35;4.65;;;;;;;;;;5046918;28;20041;-68
2022/01/17 08:48:10;;;;;;;8.18;4.05;;;;;;;;;;5045058;28;20543;-68
2022/01/17 08:50:40;;;;;;;8.82;4.70;;;;;;;;;;5037483;28;20048;-68
2022/01/17 08:53:13;;;;;;;8.38;4.25;;;;;;;;;;5049889;28;20550;-68
2022/01/17 08:55:43;;;;;;;9.30;4.43;;;;;;;;;;5048451;28;20473;-68
2022/01/17 08:58:12;;;;;;;10.35;4.35;;;;;;;;;;5046971;28;20041;-68
2022/01/17 09:00:41;;;;;;;7.53;3.63;;;;;;;;;;5047873;28;20107;-68
2022/01/17 09:03:21;;;;;;;7.78;4.00;;;;;;;;;;5047135;28;20052;-68
2022/01/17 09:05:50;;;;;;;10.38;4.20;;;;;;;;;;5050252;28;20045;-68
2022/01/17 09:08:20;;;;;;;9.75;4.22;;;;;;;;;;5046941;28;20099;-68
2022/01/17 09:10:51;;;;;;;8.02;3.97;;;;;;;;;;5048972;28;20052;-68
2022/01/17 09:13:20;;;;;;;9.60;4.05;;;;;;;;;;5037919;28;20041;-68
2022/01/17 09:15:49;;;;;;;10.63;4.45;;;;;;;;;;5047366;28;20100;-68
2022/01/17 09:18:19;;;;;;;12.20;5.00;;;;;;;;;;5041722;28;20488;-68
2022/01/17 09:20:47;;;;;;;11.50;4.75;;;;;;;;;;5046813;28;20103;-68
2022/01/17 09:23:16;;;;;;;12.05;4.22;;;;;;;;;;5047118;28;20052;-68
2022/01/17 09:25:46;;;;;;;9.18;4.63;;;;;;;;;;5051185;28;20417;-68
2022/01/17 09:28:15;;;;;;;8.38;3.88;;;;;;;;;;5035796;28;20064;-69
2022/01/17 09:30:44;;;;;;;8.95;4.50;;;;;;;;;;5041959;28;20045;-68
2022/01/17 09:33:13;;;;;;;9.02;4.10;;;;;;;;;;5039887;28;20099;-68
2022/01/17 09:35:42;;;;;;;9.90;4.50;;;;;;;;;;5042669;28;20048;-68
2022/01/17 09:38:11;;;;;;;12.40;4.43;;;;;;;;;;5045329;28;20124;-68
2022/01/17 09:40:40;;;;;;;9.68;4.13;;;;;;;;;;5038464;28;20106;-68
2022/01/17 09:43:31;;;;;;;15.38;4.60;;;;;;;;;;5043085;28;20056;-68
2022/01/17 09:46:00;;;;;;;7.68;3.95;;;;;;;;;;5036721;28;20041;-68
2022/01/17 09:48:35;;;;;;;10.25;4.90;;;;;;;;;;5040639;28;20064;-68
2022/01/17 09:51:15;;;;;;;13.55;4.80;;;;;;;;;;5045576;28;20076;-68
2022/01/17 09:53:45;;;;;;;12.10;4.60;;;;;;;;;;5048444;28;20045;-68
2022/01/17 09:56:15;;;;;;;11.52;5.03;;;;;;;;;;5039435;28;20520;-68
2022/01/17 09:58:45;;;;;;;12.18;4.68;;;;;;;;;;5037334;28;20063;-68
2022/01/17 10:01:14;;;;;;;9.45;4.57;;;;;;;;;;5025158;28;20063;-68
2022/01/17 10:03:43;;;;;;;8.75;4.15;;;;;;;;;;5023348;28;20091;-68
2022/01/17 10:06:11;;;;;;;9.20;4.43;;;;;;;;;;5015941;28;20077;-68
2022/01/17 10:08:40;;;;;;;7.88;4.45;;;;;;;;;;5022998;28;20049;-68
2022/01/17 10:11:14;;;;;;;11.75;4.40;;;;;;;;;;5029337;28;20481;-68
2022/01/17 10:13:45;;;;;;;8.20;4.13;;;;;;;;;;5023361;28;20092;-68
2022/01/17 10:16:15;;;;;;;9.40;4.53;;;;;;;;;;5029049;28;20125;-68
2022/01/17 10:18:48;;;;;;;8.02;4.25;;;;;;;;;;5029131;28;20049;-68
2022/01/17 10:21:28;;;;;;;8.75;4.18;;;;;;;;;;5019936;28;20090;-68
2022/01/17 10:35:30;;;;;;;9.07;4.43;;;;;;;;;;3294068;28;10001952;-69
2022/01/17 10:38:06;;;;;;;7.25;3.25;;;;;;;;;;5026023;28;20413;-68
2022/01/17 10:40:37;;;;;;;7.70;3.78;;;;;;;;;;4999882;28;20401;-68
2022/01/17 10:43:06;;;;;;;8.13;3.80;;;;;;;;;;5030107;28;20049;-68
2022/01/17 10:45:41;;;;;;;8.20;3.50;;;;;;;;;;5029610;28;20053;-68
2022/01/17 10:48:09;;;;;;;;;;;;;;;;;;5026477;28;20050;-69
2022/01/17 10:50:40;;;;;;;7.85;3.72;;;;;;;;;;5028708;28;19979;-68
2022/01/17 10:53:09;;;;;;;9.43;3.90;;;;;;;;;;5029053;28;20060;-68
2022/01/17 10:55:39;;;;;;;12.07;4.25;;;;;;;;;;5022927;28;20048;-68
2022/01/17 10:58:09;;;;;;;9.05;3.65;;;;;;;;;;5019181;28;20576;-69
2022/01/17 11:00:38;;;;;;;7.72;3.35;;;;;;;;;;5023250;28;20049;-68
2022/01/17 11:03:09;;;;;;;8.40;3.67;;;;;;;;;;5028364;28;20048;-68
2022/01/17 11:05:39;;;;;;;12.15;4.00;;;;;;;;;;5030241;28;20053;-68
2022/01/17 11:08:12;;;;;;;8.23;4.40;;;;;;;;;;5022335;28;20076;-69
2022/01/17 11:10:43;;;;;;;10.93;3.95;;;;;;;;;;5029104;28;20049;-69
2022/01/17 11:13:12;;;;;;;11.73;4.38;;;;;;;;;;5029818;28;20099;-68
2022/01/17 11:15:44;;;;;;;14.90;4.57;;;;;;;;;;5029432;28;20088;-68
2022/01/17 11:18:20;;;;;;;5.25;2.80;;;;;;;;;;5027662;28;20045;-69
2022/01/17 11:20:49;;;;;;;10.00;3.65;;;;;;;;;;5029573;28;20049;-68
2022/01/17 11:23:18;;;;;;;8.57;3.65;;;;;;;;;;5029367;28;20045;-68
2022/01/17 11:25:52;;;;;;;6.13;3.22;;;;;;;;;;5027701;28;20056;-68
2022/01/17 11:28:22;;;;;;;8.65;3.70;;;;;;;;;;5028390;28;20049;-69
2022/01/17 11:30:52;;;;;;;9.98;3.85;;;;;;;;;;5029577;28;20099;-68
2022/01/17 11:33:22;;;;;;;5.85;2.80;;;;;;;;;;5027891;28;20077;-68
2022/01/17 11:35:52;;;;;;;7.88;3.55;;;;;;;;;;5029721;28;20617;-69
2022/01/17 11:38:23;;;;;;;12.00;3.85;;;;;;;;;;5028218;28;20060;-69
2022/01/17 11:40:52;;;;;;;7.13;3.20;;;;;;;;;;5022473;28;20132;-68
2022/01/17 11:43:22;;;;;;;8.10;3.30;;;;;;;;;;5021801;28;20568;-68
2022/01/17 11:45:51;;;;;;;8.43;3.95;;;;;;;;;;5026411;28;20123;-68
2022/01/17 11:48:23;;;;;;;12.07;2.08;;;;;;;;;;5029000;28;20464;-69
2022/01/17 11:50:53;;;;;;;8.02;3.45;;;;;;;;;;5040962;28;20084;-68
2022/01/17 11:53:51;;;;;;;7.82;2.95;;;;;;;;;;4969398;28;20053;-69
2022/01/17 11:56:40;;;;;;;8.63;3.53;;;;;;;;;;4319026;28;10001369;-68
2022/01/17 11:59:27;;;;;;;7.18;3.40;;;;;;;;;;5024112;28;20053;-69
2022/01/17 12:02:23;;;;;;;8.35;3.83;;;;;;;;;;5026634;28;20045;-68
2022/01/17 12:04:51;;;;;;;;;;;;;;;;;;4975838;28;20071;-68
2022/01/17 12:07:22;;;;;;;7.75;3.33;;;;;;;;;;5028800;28;20036;-68
2022/01/17 12:09:51;;;;;;;8.48;3.33;;;;;;;;;;5027767;28;20050;-68
2022/01/17 12:12:20;;;;;;;8.85;3.33;;;;;;;;;;5027072;28;20053;-68
2022/01/17 12:15:05;;;;;;;5.60;2.22;;;;;;;;;;5027163;28;20107;-68
2022/01/17 12:17:35;;;;;;;8.85;3.13;;;;;;;;;;5028097;28;20053;-68
2022/01/17 12:20:17;;;;;;;8.73;3.45;;;;;;;;;;5031703;28;20397;-68
2022/01/17 12:23:01;;;;;;;10.95;3.78;;;;;;;;;;5032902;28;20045;-68
2022/01/17 12:25:38;;;;;;;6.37;3.30;;;;;;;;;;5023814;28;20072;-68
2022/01/17 12:28:25;;;;;;;7.00;3.17;;;;;;;;;;5032193;28;20332;-68
2022/01/17 12:30:55;;;;;;;6.40;2.70;;;;;;;;;;5031948;28;20050;-68
2022/01/17 12:33:32;;;;;;;6.50;3.17;;;;;;;;;;5030877;28;20318;-68
2022/01/17 12:36:02;;;;;;;6.57;2.80;;;;;;;;;;5032260;28;20052;-68
2022/01/17 12:38:35;;;;;;;6.53;2.90;;;;;;;;;;5027176;28;20049;-69
2022/01/17 12:41:08;;;;;;;8.35;2.70;;;;;;;;;;5031214;28;20057;-69
2022/01/17 12:43:37;;;;;;;4.88;2.60;;;;;;;;;;5032531;28;20266;-69
2022/01/17 12:46:11;;;;;;;7.07;3.15;;;;;;;;;;5031821;28;20338;-68
2022/01/17 12:48:40;;;;;;;7.03;2.85;;;;;;;;;;5025735;28;20099;-68
2022/01/17 12:51:11;;;;;;;6.75;2.97;;;;;;;;;;5024075;28;20046;-68
2022/01/17 12:53:40;;;;;;;8.77;3.13;;;;;;;;;;5027012;28;20057;-69
2022/01/17 12:56:10;;;;;;;3.63;2.00;;;;;;;;;;5028976;28;20045;-69
2022/01/17 12:58:40;;;;;;;6.00;3.08;;;;;;;;;;5032178;28;20049;-67
2022/01/17 13:01:10;;;;;;;8.10;3.38;;;;;;;;;;5040359;28;21006;-67
2022/01/17 13:03:40;;;;;;;9.73;3.28;;;;;;;;;;5046724;28;20052;-68
2022/01/17 13:06:10;;;;;;;7.78;3.10;;;;;;;;;;5049423;28;20064;-68
2022/01/17 13:08:41;;;;;;;7.03;3.05;;;;;;;;;;5048248;28;20412;-68
2022/01/17 13:11:14;;;;;;;5.65;2.72;;;;;;;;;;5049207;28;20444;-68
2022/01/17 13:13:46;;;;;;;4.95;2.67;;;;;;;;;;5049689;28;20056;-68
2022/01/17 13:16:16;;;;;;;8.48;3.33;;;;;;;;;;5044540;28;20583;-68
2022/01/17 13:18:46;;;;;;;6.38;1.80;;;;;;;;;;5052213;28;20076;-68
2022/01/17 13:21:15;;;;;;;6.68;2.85;;;;;;;;;;5050967;28;20381;-68
2022/01/17 13:23:48;;;;;;;4.35;2.30;;;;;;;;;;5046559;28;20120;-67
2022/01/17 13:26:19;;;;;;;6.03;2.22;;;;;;;;;;5051197;28;20052;-67
2022/01/17 13:28:48;;;;;;;7.78;2.35;;;;;;;;;;5051005;28;20056;-68
2022/01/17 13:31:20;;;;;;;4.20;2.13;;;;;;;;;;5049654;28;20539;-68
2022/01/17 13:33:49;;;;;;;6.40;2.40;;;;;;;;;;5046771;28;20063;-68
2022/01/17 13:36:21;;;;;;;7.05;2.42;;;;;;;;;;5055952;28;20049;-68
2022/01/17 13:39:02;;;;;;;8.35;2.72;;;;;;;;;;5050279;28;20304;-67
2022/01/17 13:41:32;;;;;;;7.55;2.40;;;;;;;;;;5034155;28;20415;-68
2022/01/17 13:44:01;;;;;;;6.25;2.80;;;;;;;;;;5049707;28;20489;-67
2022/01/17 13:46:29;;;;;;;5.70;2.47;;;;;;;;;;5051390;28;20515;-68
2022/01/17 13:48:58;;;;;;;6.53;2.42;;;;;;;;;;5033782;28;20042;-68
2022/01/17 13:51:30;;;;;;;6.40;2.53;;;;;;;;;;5058997;28;20049;-67
2022/01/17 13:54:05;;;;;;;5.05;2.67;;;;;;;;;;3813710;28;10020748;-68
2022/01/17 13:56:37;;;;;;;9.52;2.35;;;;;;;;;;2088302;28;10002111;-68
2022/01/17 13:59:06;;;;;;;6.53;2.35;;;;;;;;;;5036076;28;20080;-68
2022/01/17 14:01:37;;;;;;;4.78;2.08;;;;;;;;;;5034045;28;20041;-68
2022/01/17 14:04:20;;;;;;;5.97;2.55;;;;;;;;;;5055560;28;20588;-68
2022/01/17 14:06:49;;;;;;;5.00;2.08;;;;;;;;;;5045409;28;20040;-68
2022/01/17 14:09:17;;;;;;;6.20;1.75;;;;;;;;;;5047212;28;20053;-67
2022/01/17 14:11:50;;;;;;;6.00;1.48;;;;;;;;;;5033827;28;20045;-67
2022/01/17 14:14:20;;;;;;;7.07;1.75;;;;;;;;;;5039632;28;20538;-68
2022/01/17 14:16:49;;;;;;;5.00;2.08;;;;;;;;;;5050307;28;20434;-68
2022/01/17 14:19:19;;;;;;;6.55;2.33;;;;;;;;;;5050739;28;20056;-68
2022/01/17 14:21:49;;;;;;;5.57;1.45;;;;;;;;;;5044653;28;20049;-68
2022/01/17 14:24:20;;;;;;;4.75;2.00;;;;;;;;;;5047383;28;20102;-68
2022/01/17 14:27:14;;;;;;;4.07;1.80;;;;;;;;;;5049791;28;20508;-67
2022/01/17 14:29:44;;;;;;;3.80;1.20;;;;;;;;;;5045787;28;20045;-68
2022/01/17 14:32:14;;;;;;;4.32;1.77;;;;;;;;;;5047598;28;20447;-68
2022/01/17 14:34:43;;;;;;;2.42;1.60;;;;;;;;;;5039828;28;20081;-68
2022/01/17 14:37:14;;;;;;;8.25;1.83;;;;;;;;;;5047930;28;20052;-67
2022/01/17 14:39:46;;;;;;;5.70;1.98;;;;;;;;;;5048726;28;20156;-68
2022/01/17 14:42:19;;;;;;;3.15;1.52;;;;;;;;;;5046907;28;20507;-68
2022/01/17 14:44:50;;;;;;;1.83;1.23;;;;;;;;;;5048465;28;20059;-67
2022/01/17 14:47:20;;;;;;;3.40;1.20;;;;;;;;;;5049065;28;20052;-69
2022/01/17 14:49:50;;;;;;;5.20;1.73;;;;;;;;;;5050226;28;20037;-68
2022/01/17 14:52:20;;;;;;;2.45;1.38;;;;;;;;;;5042920;28;20049;-69
2022/01/17 14:55:02;;;;;;;2.65;1.30;;;;;;;;;;5046258;28;20473;-68
2022/01/17 15:00:24;;;;;;;1.58;1.13;;;;;;;;;;4989603;28;20058;-69
2022/01/17 15:02:58;;;;;;;2.28;0.95;;;;;;;;;;5033523;28;20045;-68
2022/01/17 15:05:28;;;;;;;3.85;1.42;;;;;;;;;;5034463;28;20080;-69
2022/01/17 15:07:57;;;;;;;1.55;0.95;;;;;;;;;;5019511;28;20151;-68
2022/01/17 15:10:29;;;;;;;5.28;1.30;;;;;;;;;;5020470;28;20107;-70
2022/01/17 15:12:59;;;;;;;2.15;1.00;;;;;;;;;;5023045;28;20432;-67
2022/01/17 15:15:28;;;;;;;2.13;1.45;;;;;;;;;;5020378;28;20061;-67
2022/01/17 15:17:58;;;;;;;3.20;1.80;;;;;;;;;;5014488;28;20054;-67
2022/01/17 15:20:28;;;;;;;5.05;2.10;;;;;;;;;;5026561;28;20065;-67